createdAt,value
2018-08-30T00:01:28.635Z,61.80
2018-08-30T00:04:00.095Z,62.00
2018-08-30T00:06:31.820Z,62.10
2018-08-30T00:09:03.344Z,62.00
2018-08-30T00:11:34.909Z,61.80
2018-08-30T00:14:06.363Z,61.90
2018-08-30T00:16:37.631Z,62.50
2018-08-30T00:19:08.854Z,62.40
2018-08-30T00:21:40.424Z,62.70
2018-08-30T00:24:12.710Z,63.00
2018-08-30T00:26:44.068Z,63.10
2018-08-30T00:29:15.561Z,63.60
2018-08-30T00:31:47.119Z,62.70
2018-08-30T00:34:18.770Z,63.20
2018-08-30T00:36:50.168Z,63.20
2018-08-30T00:39:21.521Z,63.40
2018-08-30T00:41:53.001Z,63.20
2018-08-30T00:44:24.092Z,63.80
2018-08-30T00:46:55.154Z,64.10
2018-08-30T00:49:26.589Z,64.00
2018-08-30T00:51:57.987Z,63.80
2018-08-30T00:54:29.295Z,63.80
2018-08-30T00:57:00.542Z,64.10
2018-08-30T00:59:31.795Z,64.10
2018-08-30T01:02:03.148Z,65.10
2018-08-30T01:04:34.637Z,64.70
2018-08-30T01:07:06.536Z,64.70
2018-08-30T01:09:38.012Z,64.40
2018-08-30T01:12:09.200Z,64.60
2018-08-30T01:14:40.687Z,64.80
2018-08-30T01:17:12.432Z,64.90
2018-08-30T01:19:43.801Z,65.50
2018-08-30T01:22:15.147Z,65.40
2018-08-30T01:24:47.387Z,65.30
2018-08-30T01:27:18.776Z,65.40
2018-08-30T01:29:50.163Z,65.40
2018-08-30T01:32:21.468Z,65.10
2018-08-30T01:34:52.996Z,65.20
2018-08-30T01:37:24.595Z,65.30
2018-08-30T01:39:55.981Z,65.60
2018-08-30T01:42:27.272Z,65.40
2018-08-30T01:44:58.812Z,65.50
2018-08-30T01:47:30.177Z,65.40
2018-08-30T01:50:01.175Z,65.10
2018-08-30T01:52:32.642Z,65.80
2018-08-30T01:55:03.916Z,65.50
2018-08-30T01:57:35.385Z,65.90
2018-08-30T02:00:06.743Z,65.70
2018-08-30T02:02:38.188Z,65.60
2018-08-30T02:05:09.785Z,66.20
2018-08-30T02:07:41.173Z,66.10
2018-08-30T02:10:12.693Z,66.60
2018-08-30T02:12:45.041Z,66.60
2018-08-30T02:15:16.441Z,66.70
2018-08-30T02:17:47.655Z,66.90
2018-08-30T02:20:18.871Z,66.70
2018-08-30T02:22:50.124Z,66.20
2018-08-30T02:25:21.509Z,66.30
2018-08-30T02:27:52.923Z,66.20
2018-08-30T02:30:24.538Z,66.30
2018-08-30T02:32:55.664Z,66.40
2018-08-30T02:35:27.221Z,66.10
2018-08-30T02:37:58.655Z,66.10
2018-08-30T02:40:30.399Z,65.80
2018-08-30T02:43:01.718Z,66.00
2018-08-30T02:45:33.312Z,65.50
2018-08-30T02:48:05.007Z,65.20
2018-08-30T02:50:36.276Z,65.90
2018-08-30T02:53:07.764Z,66.00
2018-08-30T02:55:39.207Z,65.80
2018-08-30T02:58:10.998Z,65.70
2018-08-30T03:00:42.220Z,65.80
2018-08-30T03:03:13.463Z,66.50
2018-08-30T03:05:45.074Z,67.50
2018-08-30T03:08:16.352Z,67.10
2018-08-30T03:10:47.719Z,66.80
2018-08-30T03:13:18.897Z,67.00
2018-08-30T03:15:50.731Z,67.80
2018-08-30T03:18:22.172Z,67.00
2018-08-30T03:20:53.612Z,66.90
2018-08-30T03:23:24.663Z,67.10
2018-08-30T03:25:56.145Z,67.30
2018-08-30T03:28:27.753Z,67.10
2018-08-30T03:30:59.366Z,67.80
2018-08-30T03:33:30.565Z,67.00
2018-08-30T03:36:01.800Z,66.90
2018-08-30T03:38:33.103Z,67.00
2018-08-30T03:41:04.942Z,67.10
2018-08-30T03:43:36.181Z,66.90
2018-08-30T03:46:07.687Z,67.30
2018-08-30T03:48:39.360Z,67.20
2018-08-30T03:51:10.701Z,67.30
2018-08-30T03:53:41.879Z,67.30
2018-08-30T03:56:13.406Z,67.50
2018-08-30T03:58:44.769Z,67.70
2018-08-30T04:01:16.164Z,67.60
2018-08-30T04:03:47.749Z,67.60
2018-08-30T04:06:19.041Z,67.60
2018-08-30T04:08:50.511Z,67.60
2018-08-30T04:11:21.839Z,68.40
2018-08-30T04:13:53.204Z,68.30
2018-08-30T04:16:24.429Z,67.90
2018-08-30T04:19:05.680Z,67.90
2018-08-30T04:21:37.374Z,67.80
2018-08-30T04:24:09.624Z,67.70
2018-08-30T04:26:41.228Z,67.30
2018-08-30T04:29:12.784Z,67.40
2018-08-30T04:31:43.964Z,67.30
2018-08-30T04:34:15.319Z,67.10
2018-08-30T04:36:46.797Z,67.10
2018-08-30T04:39:18.464Z,66.80
2018-08-30T04:41:49.665Z,67.00
2018-08-30T04:44:21.014Z,67.30
2018-08-30T04:46:52.624Z,67.10
2018-08-30T04:49:23.934Z,67.00
2018-08-30T04:51:55.273Z,66.80
2018-08-30T04:54:26.498Z,66.40
2018-08-30T04:57:00.841Z,66.10
2018-08-30T04:59:32.986Z,66.00
2018-08-30T05:02:04.480Z,65.60
2018-08-30T05:04:35.882Z,65.10
2018-08-30T05:07:07.333Z,64.20
2018-08-30T05:09:38.535Z,63.80
2018-08-30T05:12:10.132Z,63.40
2018-08-30T05:14:41.472Z,62.60
2018-08-30T05:17:12.997Z,62.30
2018-08-30T05:19:44.369Z,61.80
2018-08-30T05:22:15.746Z,60.90
2018-08-30T05:24:47.348Z,60.60
2018-08-30T05:27:18.543Z,60.20
2018-08-30T05:29:50.181Z,59.30
2018-08-30T05:32:21.444Z,59.30
2018-08-30T05:34:53.002Z,58.50
2018-08-30T05:37:24.376Z,58.50
2018-08-30T05:39:56.633Z,58.90
2018-08-30T05:42:28.153Z,58.50
2018-08-30T05:44:59.528Z,57.60
2018-08-30T05:47:30.880Z,56.50
2018-08-30T05:50:02.391Z,56.30
2018-08-30T05:52:34.746Z,56.00
2018-08-30T05:55:06.472Z,55.80
2018-08-30T05:57:37.798Z,55.20
2018-08-30T06:00:09.420Z,55.70
2018-08-30T06:02:40.712Z,55.60
2018-08-30T06:05:12.355Z,55.40
2018-08-30T06:07:43.677Z,55.60
2018-08-30T06:10:14.980Z,54.80
2018-08-30T06:12:46.652Z,54.20
2018-08-30T06:15:17.951Z,54.50
2018-08-30T06:17:49.327Z,53.90
2018-08-30T06:20:20.572Z,53.80
2018-08-30T06:22:52.334Z,53.40
2018-08-30T06:25:23.888Z,53.20
2018-08-30T06:27:55.053Z,52.60
2018-08-30T06:30:26.453Z,53.10
2018-08-30T06:32:57.990Z,52.60
2018-08-30T06:35:29.416Z,53.30
2018-08-30T06:38:01.160Z,53.20
2018-08-30T06:40:32.853Z,53.40
2018-08-30T06:43:04.379Z,53.70
2018-08-30T06:45:35.888Z,53.40
2018-08-30T06:48:07.171Z,52.80
2018-08-30T06:50:38.939Z,51.60
2018-08-30T06:53:10.620Z,50.60
2018-08-30T06:55:42.096Z,50.20
2018-08-30T06:58:13.535Z,48.70
2018-08-30T07:00:44.964Z,48.60
2018-08-30T07:03:16.232Z,48.20
2018-08-30T07:05:47.960Z,47.70
2018-08-30T07:08:19.397Z,47.10
2018-08-30T07:10:50.683Z,47.20
2018-08-30T07:13:22.030Z,47.00
2018-08-30T07:15:53.421Z,46.40
2018-08-30T07:18:25.104Z,45.70
2018-08-30T07:20:56.494Z,45.70
2018-08-30T07:23:27.900Z,44.60
2018-08-30T07:25:59.402Z,45.10
2018-08-30T07:28:30.803Z,44.90
2018-08-30T07:31:02.396Z,44.50
2018-08-30T07:33:33.928Z,43.60
2018-08-30T07:36:05.349Z,43.80
2018-08-30T07:38:36.584Z,44.10
2018-08-30T07:41:08.118Z,43.00
2018-08-30T07:43:39.434Z,42.90
2018-08-30T07:46:10.556Z,43.40
2018-08-30T07:48:42.129Z,43.20
2018-08-30T07:51:13.377Z,42.60
2018-08-30T07:53:45.140Z,42.00
2018-08-30T07:56:16.589Z,41.80
2018-08-30T07:58:47.910Z,41.60
2018-08-30T08:01:19.401Z,39.90
2018-08-30T08:03:50.712Z,39.80
2018-08-30T08:06:22.405Z,38.90
2018-08-30T08:08:53.824Z,39.00
2018-08-30T08:11:25.394Z,39.30
2018-08-30T08:13:56.905Z,39.10
2018-08-30T08:16:29.096Z,38.60
2018-08-30T08:19:01.069Z,38.70
2018-08-30T08:21:32.904Z,38.50
2018-08-30T08:24:04.613Z,38.90
2018-08-30T08:26:35.934Z,39.10
2018-08-30T08:29:07.704Z,39.20
2018-08-30T08:31:38.805Z,39.40
2018-08-30T08:34:10.342Z,38.10
2018-08-30T08:36:41.804Z,37.90
2018-08-30T08:39:13.201Z,37.70
2018-08-30T08:41:44.836Z,38.00
2018-08-30T08:44:16.668Z,38.20
2018-08-30T08:46:48.056Z,37.50
2018-08-30T08:49:19.854Z,36.80
2018-08-30T08:51:51.500Z,36.40
2018-08-30T08:54:22.823Z,36.40
2018-08-30T08:56:55.045Z,37.50
2018-08-30T08:59:26.416Z,38.50
2018-08-30T09:01:57.816Z,38.40
2018-08-30T09:04:29.587Z,38.40
2018-08-30T09:07:01.027Z,37.70
2018-08-30T09:09:32.585Z,37.30
2018-08-30T09:12:03.837Z,37.70
2018-08-30T09:14:35.297Z,36.50
2018-08-30T09:17:06.746Z,35.70
2018-08-30T09:19:38.032Z,35.20
2018-08-30T09:22:09.496Z,35.50
2018-08-30T09:24:40.809Z,36.20
2018-08-30T09:27:12.373Z,37.10
2018-08-30T09:29:43.764Z,38.30
2018-08-30T09:32:15.077Z,39.50
2018-08-30T09:34:46.756Z,40.20
2018-08-30T09:37:18.025Z,40.60
2018-08-30T09:39:49.235Z,41.10
2018-08-30T09:42:20.828Z,40.80
2018-08-30T09:44:52.109Z,40.00
2018-08-30T09:47:23.271Z,40.10
2018-08-30T09:49:54.624Z,39.10
2018-08-30T09:52:25.890Z,38.80
2018-08-30T09:54:57.111Z,37.50
2018-08-30T09:57:28.596Z,36.40
2018-08-30T10:00:00.268Z,35.90
2018-08-30T10:02:34.702Z,35.20
2018-08-30T10:05:06.262Z,35.20
2018-08-30T10:07:37.760Z,35.90
2018-08-30T10:10:09.248Z,36.20
2018-08-30T10:12:40.748Z,35.80
2018-08-30T10:15:12.323Z,36.20
2018-08-30T10:17:43.452Z,38.20
2018-08-30T10:20:14.792Z,38.70
2018-08-30T10:22:46.150Z,39.40
2018-08-30T10:25:17.553Z,40.20
2018-08-30T10:27:49.074Z,40.80
2018-08-30T10:30:20.445Z,40.60
2018-08-30T10:32:51.681Z,40.20
2018-08-30T10:35:23.468Z,39.90
2018-08-30T10:37:54.738Z,40.30
2018-08-30T10:40:25.950Z,40.30
2018-08-30T10:42:57.436Z,40.00
2018-08-30T10:45:28.759Z,40.00
2018-08-30T10:48:00.054Z,39.10
2018-08-30T10:50:31.357Z,38.00
2018-08-30T10:53:02.750Z,37.80
2018-08-30T10:55:34.266Z,38.20
2018-08-30T10:58:05.637Z,37.50
2018-08-30T11:00:38.239Z,37.30
2018-08-30T11:03:09.663Z,37.20
2018-08-30T11:05:41.202Z,37.40
2018-08-30T11:08:12.624Z,37.50
2018-08-30T11:10:43.996Z,37.00
2018-08-30T11:13:15.541Z,37.60
2018-08-30T11:15:46.828Z,38.10
2018-08-30T11:18:17.992Z,38.80
2018-08-30T11:20:49.448Z,38.80
2018-08-30T11:23:20.824Z,39.00
2018-08-30T11:25:52.296Z,38.10
2018-08-30T11:28:23.654Z,38.10
2018-08-30T11:30:55.171Z,37.60
2018-08-30T11:33:26.442Z,36.70
2018-08-30T11:35:57.786Z,36.40
2018-08-30T11:38:29.226Z,36.50
2018-08-30T11:41:00.818Z,36.40
2018-08-30T11:43:32.381Z,36.30
2018-08-30T11:46:04.421Z,36.00
2018-08-30T11:48:35.770Z,35.40
2018-08-30T11:51:08.019Z,35.40
2018-08-30T11:53:39.324Z,35.50
2018-08-30T11:56:10.970Z,36.00
2018-08-30T11:58:42.447Z,36.10
2018-08-30T12:01:14.052Z,36.30
2018-08-30T12:03:47.429Z,36.90
2018-08-30T12:06:19.412Z,37.30
2018-08-30T12:08:50.904Z,37.60
2018-08-30T12:11:22.549Z,37.60
2018-08-30T12:13:54.053Z,37.30
2018-08-30T12:16:25.765Z,37.50
2018-08-30T12:18:57.294Z,37.30
2018-08-30T12:21:29.009Z,37.20
2018-08-30T12:24:00.155Z,37.00
2018-08-30T12:26:31.687Z,36.90
2018-08-30T12:29:03.060Z,37.40
2018-08-30T12:31:34.708Z,37.40
2018-08-30T12:34:06.256Z,37.20
2018-08-30T12:36:38.106Z,37.00
2018-08-30T12:39:12.586Z,37.00
2018-08-30T12:41:44.150Z,36.60
2018-08-30T12:44:15.752Z,37.10
2018-08-30T12:46:47.487Z,38.30
2018-08-30T12:49:18.982Z,38.10
2018-08-30T12:51:50.552Z,38.20
2018-08-30T12:54:22.002Z,38.30
2018-08-30T12:56:53.593Z,38.40
2018-08-30T12:59:30.074Z,38.30
2018-08-30T13:02:01.586Z,38.80
2018-08-30T13:04:33.102Z,39.10
2018-08-30T13:07:04.736Z,39.10
2018-08-30T13:09:36.300Z,38.80
2018-08-30T13:12:08.197Z,38.30
2018-08-30T13:14:39.510Z,38.90
2018-08-30T13:17:10.680Z,39.10
2018-08-30T13:19:42.205Z,38.80
2018-08-30T13:22:14.016Z,38.60
2018-08-30T13:24:45.355Z,38.80
2018-08-30T13:27:17.084Z,39.50
2018-08-30T13:29:48.684Z,39.60
2018-08-30T13:32:20.456Z,39.80
2018-08-30T13:34:52.154Z,40.20
2018-08-30T13:37:23.650Z,40.30
2018-08-30T13:39:55.294Z,40.30
2018-08-30T13:42:26.776Z,40.30
2018-08-30T13:44:58.251Z,40.30
2018-08-30T13:47:29.545Z,40.10
2018-08-30T13:50:01.445Z,40.50
2018-08-30T13:52:33.129Z,40.70
2018-08-30T13:55:04.313Z,41.00
2018-08-30T13:57:35.950Z,41.80
2018-08-30T14:00:07.834Z,40.70
2018-08-30T14:02:38.820Z,40.80
2018-08-30T14:05:10.469Z,41.00
2018-08-30T14:07:42.212Z,40.90
2018-08-30T14:10:13.398Z,40.80
2018-08-30T14:12:44.391Z,40.70
2018-08-30T14:15:15.938Z,40.80
2018-08-30T14:17:47.112Z,41.20
2018-08-30T14:20:18.532Z,40.90
2018-08-30T14:22:49.822Z,41.20
2018-08-30T14:25:21.402Z,41.50
2018-08-30T14:27:52.808Z,41.50
2018-08-30T14:30:24.159Z,41.90
2018-08-30T14:32:55.712Z,42.50
2018-08-30T14:35:27.399Z,42.30
2018-08-30T14:37:58.595Z,42.30
2018-08-30T14:40:29.802Z,42.30
2018-08-30T14:43:01.165Z,42.20
2018-08-30T14:45:32.408Z,42.00
2018-08-30T14:48:03.964Z,41.60
2018-08-30T14:50:35.519Z,40.90
2018-08-30T14:53:06.920Z,41.50
2018-08-30T14:55:38.300Z,41.60
2018-08-30T14:58:10.029Z,42.30
2018-08-30T15:00:41.202Z,41.40
2018-08-30T15:03:12.589Z,41.30
2018-08-30T15:05:44.164Z,41.50
2018-08-30T15:08:15.321Z,41.80
2018-08-30T15:10:46.831Z,42.00
2018-08-30T15:13:18.353Z,42.20
2018-08-30T15:15:50.259Z,42.70
2018-08-30T15:18:21.747Z,43.10
2018-08-30T15:20:52.914Z,43.30
2018-08-30T15:23:24.512Z,43.60
2018-08-30T15:25:55.832Z,44.50
2018-08-30T15:28:27.313Z,45.20
2018-08-30T15:30:58.396Z,46.10
2018-08-30T15:33:29.889Z,46.30
2018-08-30T15:36:01.169Z,46.80
2018-08-30T15:38:32.602Z,47.40
2018-08-30T15:41:04.051Z,48.70
2018-08-30T15:43:35.480Z,48.60
2018-08-30T15:46:07.041Z,48.90
2018-08-30T15:48:38.479Z,49.60
2018-08-30T15:51:09.826Z,50.10
2018-08-30T15:53:41.418Z,50.40
2018-08-30T15:56:13.008Z,50.50
2018-08-30T15:58:44.616Z,50.30
2018-08-30T16:01:16.421Z,50.30
2018-08-30T16:03:47.811Z,50.90
2018-08-30T16:06:19.416Z,51.00
2018-08-30T16:08:51.047Z,51.30
2018-08-30T16:11:22.758Z,51.50
2018-08-30T16:13:54.268Z,51.40
2018-08-30T16:16:26.062Z,51.70
2018-08-30T16:18:57.719Z,51.90
2018-08-30T16:21:29.303Z,52.10
2018-08-30T16:24:00.949Z,52.10
2018-08-30T16:26:32.513Z,52.40
2018-08-30T16:29:04.104Z,52.50
2018-08-30T16:31:35.526Z,52.50
2018-08-30T16:34:07.332Z,52.40
2018-08-30T16:36:42.738Z,52.60
2018-08-30T16:39:14.343Z,52.60
2018-08-30T16:41:46.173Z,53.00
2018-08-30T16:44:17.710Z,52.60
2018-08-30T16:46:49.039Z,52.20
2018-08-30T16:49:20.510Z,52.30
2018-08-30T16:51:51.999Z,52.40
2018-08-30T16:54:23.424Z,52.10
2018-08-30T16:56:54.931Z,52.00
2018-08-30T16:59:26.296Z,51.80
2018-08-30T17:01:57.809Z,51.80
2018-08-30T17:04:29.217Z,52.20
2018-08-30T17:07:00.843Z,52.50
2018-08-30T17:09:32.425Z,52.90
2018-08-30T17:12:03.972Z,52.80
2018-08-30T17:14:35.606Z,53.20
2018-08-30T17:17:07.582Z,53.60
2018-08-30T17:19:39.132Z,53.80
2018-08-30T17:22:10.464Z,53.60
2018-08-30T17:24:42.257Z,53.90
2018-08-30T17:27:14.054Z,53.80
2018-08-30T17:29:45.947Z,53.90
2018-08-30T17:32:18.015Z,54.20
2018-08-30T17:34:49.280Z,54.50
2018-08-30T17:37:20.838Z,54.70
2018-08-30T17:39:52.292Z,54.50
2018-08-30T17:42:24.697Z,54.60
2018-08-30T17:44:56.281Z,55.00
2018-08-30T17:47:27.728Z,55.50
2018-08-30T17:49:59.103Z,55.60
2018-08-30T17:52:30.525Z,56.00
2018-08-30T17:55:02.867Z,56.60
2018-08-30T17:57:34.570Z,57.30
2018-08-30T18:00:08.611Z,58.00
2018-08-30T18:02:40.735Z,58.20
2018-08-30T18:05:12.764Z,58.50
2018-08-30T18:07:44.505Z,58.60
2018-08-30T18:10:16.268Z,58.90
2018-08-30T18:12:47.818Z,59.20
2018-08-30T18:15:19.291Z,59.80
2018-08-30T18:17:50.687Z,60.10
2018-08-30T18:20:22.799Z,60.50
2018-08-30T18:22:55.045Z,61.00
2018-08-30T18:25:27.312Z,61.30
2018-08-30T18:27:59.072Z,61.80
2018-08-30T18:30:30.688Z,61.90
2018-08-30T18:33:02.240Z,62.10
2018-08-30T18:35:34.093Z,62.10
2018-08-30T18:38:05.789Z,62.50
2018-08-30T18:40:38.095Z,63.90
2018-08-30T18:43:09.857Z,64.80
2018-08-30T18:45:41.495Z,65.50
2018-08-30T18:48:13.434Z,65.90
2018-08-30T18:50:45.028Z,66.40
2018-08-30T18:53:16.462Z,67.00
2018-08-30T18:55:48.045Z,67.40
2018-08-30T18:58:19.637Z,67.20
2018-08-30T19:00:51.258Z,67.40
2018-08-30T19:03:23.119Z,67.80
2018-08-30T19:05:55.613Z,67.80
2018-08-30T19:08:27.954Z,68.60
2018-08-30T19:10:59.812Z,68.90
2018-08-30T19:13:31.552Z,69.20
2018-08-30T19:16:08.218Z,69.50
2018-08-30T19:18:44.951Z,69.20
2018-08-30T19:21:16.540Z,69.20
2018-08-30T19:23:48.815Z,69.60
2018-08-30T19:26:20.209Z,69.60
2018-08-30T19:28:52.397Z,69.80
2018-08-30T19:31:23.809Z,70.00
2018-08-30T19:33:55.709Z,70.40
2018-08-30T19:36:30.429Z,70.70
2018-08-30T19:39:03.189Z,70.10
2018-08-30T19:41:34.978Z,70.80
2018-08-30T19:44:06.666Z,70.20
2018-08-30T19:46:38.034Z,70.10
2018-08-30T19:49:09.466Z,70.00
2018-08-30T19:51:41.290Z,70.10
2018-08-30T19:54:13.237Z,70.40
2018-08-30T19:56:44.850Z,71.30
2018-08-30T19:59:17.136Z,70.00
2018-08-30T20:01:48.512Z,70.00
2018-08-30T20:04:20.024Z,69.70
2018-08-30T20:06:52.223Z,69.30
2018-08-30T20:09:23.999Z,69.90
2018-08-30T20:11:55.669Z,68.90
2018-08-30T20:14:27.614Z,68.50
2018-08-30T20:16:59.786Z,68.10
2018-08-30T20:19:31.915Z,67.90
2018-08-30T20:22:03.792Z,67.60
2018-08-30T20:24:36.120Z,67.50
2018-08-30T20:27:08.097Z,67.50
2018-08-30T20:29:39.650Z,67.40
2018-08-30T20:32:11.772Z,68.00
2018-08-30T20:34:43.969Z,68.10
2018-08-30T20:37:15.490Z,68.30
2018-08-30T20:39:48.032Z,68.50
2018-08-30T20:42:20.365Z,68.30
2018-08-30T20:44:51.945Z,68.70
2018-08-30T20:47:24.929Z,69.30
2018-08-30T20:49:56.901Z,70.30
2018-08-30T20:52:28.959Z,70.60
2018-08-30T20:55:00.673Z,71.10
2018-08-30T20:57:32.049Z,71.60
2018-08-30T21:00:03.776Z,72.10
2018-08-30T21:02:35.554Z,72.30
2018-08-30T21:05:07.149Z,72.90
2018-08-30T21:07:38.587Z,73.30
2018-08-30T21:10:10.460Z,73.30
2018-08-30T21:12:42.222Z,73.60
2018-08-30T21:15:14.808Z,74.70
2018-08-30T21:17:47.064Z,75.20
2018-08-30T21:20:18.818Z,75.50
2018-08-30T21:22:50.657Z,75.40
2018-08-30T21:25:22.024Z,76.00
2018-08-30T21:27:53.656Z,75.80
2018-08-30T21:30:25.655Z,76.10
2018-08-30T21:32:57.457Z,76.00
2018-08-30T21:35:29.116Z,76.20
2018-08-30T21:38:01.106Z,76.20
2018-08-30T21:40:34.659Z,76.10
2018-08-30T21:43:06.249Z,75.70
2018-08-30T21:45:38.439Z,75.50
2018-08-30T21:48:10.901Z,75.00
2018-08-30T21:50:42.947Z,74.30
2018-08-30T21:53:14.894Z,74.30
2018-08-30T21:55:46.665Z,73.80
2018-08-30T21:58:18.613Z,73.30
2018-08-30T22:00:51.251Z,72.70
2018-08-30T22:03:23.472Z,72.20
2018-08-30T22:05:55.089Z,71.60
2018-08-30T22:08:26.510Z,71.20
2018-08-30T22:10:58.307Z,71.00
2018-08-30T22:13:30.406Z,70.80
2018-08-30T22:16:02.244Z,70.90
2018-08-30T22:18:33.841Z,70.40
2018-08-30T22:21:06.227Z,70.90
2018-08-30T22:23:40.713Z,71.80
2018-08-30T22:26:12.443Z,72.40
2018-08-30T22:28:44.097Z,72.50
2018-08-30T22:31:15.918Z,73.30
2018-08-30T22:33:47.656Z,74.00
2018-08-30T22:36:19.128Z,74.30
2018-08-30T22:38:51.408Z,74.50
2018-08-30T22:41:23.268Z,74.60
2018-08-30T22:43:55.048Z,74.00
2018-08-30T22:46:26.760Z,74.10
2018-08-30T22:48:58.470Z,73.70
2018-08-30T22:51:30.160Z,73.80
2018-08-30T22:54:01.888Z,73.70
2018-08-30T22:56:33.438Z,74.10
2018-08-30T22:59:04.797Z,74.70
2018-08-30T23:01:36.613Z,75.10
2018-08-30T23:04:08.078Z,75.10
2018-08-30T23:06:39.614Z,75.50
2018-08-30T23:09:11.774Z,76.00
2018-08-30T23:11:43.410Z,76.80
2018-08-30T23:14:14.930Z,76.60
2018-08-30T23:16:46.768Z,77.00
2018-08-30T23:19:18.200Z,77.60
2018-08-30T23:21:49.621Z,77.70
2018-08-30T23:24:21.048Z,78.30
2018-08-30T23:26:52.709Z,78.60
2018-08-30T23:29:24.341Z,78.60
2018-08-30T23:31:55.755Z,78.90
2018-08-30T23:34:27.613Z,78.90
2018-08-30T23:36:59.124Z,78.60
2018-08-30T23:39:30.657Z,78.80
2018-08-30T23:42:02.152Z,78.90
2018-08-30T23:44:33.864Z,79.00
2018-08-30T23:47:05.288Z,79.20
2018-08-30T23:49:36.759Z,79.30
2018-08-30T23:52:08.747Z,79.00
2018-08-30T23:54:40.363Z,78.40
2018-08-30T23:57:12.060Z,78.50
